createdAt,value
2022-11-09T00:01:03.768Z,13.60
2022-11-09T00:03:32.025Z,13.70
2022-11-09T00:06:01.965Z,13.70
2022-11-09T00:08:30.324Z,13.60
2022-11-09T00:11:04.081Z,13.50
2022-11-09T00:13:32.488Z,13.50
2022-11-09T00:16:00.568Z,13.50
2022-11-09T00:18:28.601Z,13.50
2022-11-09T00:20:57.209Z,13.60
2022-11-09T00:23:26.607Z,13.50
2022-11-09T00:25:54.684Z,13.50
2022-11-09T00:28:22.720Z,13.50
2022-11-09T00:30:50.798Z,13.40
2022-11-09T00:33:19.179Z,13.40
2022-11-09T00:35:47.455Z,13.40
2022-11-09T00:38:15.520Z,13.50
2022-11-09T00:40:44.952Z,13.50
2022-11-09T00:43:13.018Z,13.50
2022-11-09T00:45:41.381Z,13.60
2022-11-09T00:48:09.775Z,13.60
2022-11-09T00:50:37.856Z,13.70
2022-11-09T00:53:05.901Z,13.60
2022-11-09T00:55:33.985Z,13.60
2022-11-09T00:58:03.395Z,13.50
2022-11-09T01:00:31.416Z,13.50
2022-11-09T01:02:59.437Z,13.50
2022-11-09T01:05:27.523Z,13.40
2022-11-09T01:07:55.412Z,13.40
2022-11-09T01:10:23.503Z,13.40
2022-11-09T01:12:51.502Z,13.30
2022-11-09T01:15:20.948Z,13.20
2022-11-09T01:17:49.028Z,13.20
2022-11-09T01:20:17.468Z,13.10
2022-11-09T01:22:45.586Z,13.20
2022-11-09T01:25:13.618Z,13.10
2022-11-09T01:27:41.691Z,12.90
2022-11-09T01:30:10.299Z,12.80
2022-11-09T01:32:39.670Z,12.70
2022-11-09T01:35:08.264Z,12.80
2022-11-09T01:37:36.318Z,12.80
2022-11-09T01:40:05.199Z,12.70
2022-11-09T01:42:37.882Z,12.60
2022-11-09T01:45:27.666Z,12.50
2022-11-09T01:48:01.928Z,12.50
2022-11-09T01:50:35.756Z,12.40
2022-11-09T01:53:07.695Z,12.30
2022-11-09T01:55:36.393Z,12.40
2022-11-09T01:58:09.180Z,12.30
2022-11-09T02:00:39.081Z,12.40
2022-11-09T02:03:16.511Z,12.40
2022-11-09T02:05:45.760Z,12.40
2022-11-09T02:08:18.045Z,12.60
2022-11-09T02:10:51.717Z,12.60
2022-11-09T02:13:22.554Z,12.70
2022-11-09T02:15:51.867Z,12.70
2022-11-09T02:18:21.639Z,12.80
2022-11-09T02:20:53.277Z,12.90
2022-11-09T02:23:22.317Z,12.80
2022-11-09T02:25:54.020Z,12.80
2022-11-09T02:28:22.617Z,12.80
2022-11-09T02:30:54.912Z,12.80
2022-11-09T02:33:23.854Z,12.80
2022-11-09T02:35:53.288Z,12.90
2022-11-09T02:38:21.345Z,12.90
2022-11-09T02:40:52.449Z,12.90
2022-11-09T02:43:21.359Z,13.00
2022-11-09T02:45:49.724Z,12.90
2022-11-09T02:48:17.992Z,12.90
2022-11-09T02:50:46.052Z,12.80
2022-11-09T02:53:15.481Z,12.90
2022-11-09T02:55:43.520Z,12.90
2022-11-09T02:58:11.617Z,13.00
2022-11-09T03:00:39.672Z,13.00
2022-11-09T03:03:07.851Z,13.00
2022-11-09T03:05:35.920Z,13.00
2022-11-09T03:08:03.856Z,13.00
2022-11-09T03:10:33.226Z,13.00
2022-11-09T03:13:01.431Z,13.10
2022-11-09T03:15:29.427Z,13.00
2022-11-09T03:17:58.047Z,13.00
2022-11-09T03:20:26.102Z,13.00
2022-11-09T03:22:58.667Z,13.10
2022-11-09T03:25:27.085Z,13.00
2022-11-09T03:28:00.291Z,13.00
2022-11-09T03:30:28.940Z,13.00
2022-11-09T03:33:00.673Z,12.90
2022-11-09T03:35:30.879Z,12.90
2022-11-09T03:37:58.943Z,12.90
2022-11-09T03:40:27.067Z,12.90
2022-11-09T03:42:55.140Z,12.90
2022-11-09T03:45:24.826Z,12.80
2022-11-09T03:47:54.856Z,12.80
2022-11-09T03:50:22.915Z,12.80
2022-11-09T03:52:51.028Z,12.80
2022-11-09T03:55:19.451Z,12.70
2022-11-09T03:57:47.861Z,12.70
2022-11-09T04:00:21.634Z,12.70
2022-11-09T04:02:51.401Z,12.60
2022-11-09T04:05:20.148Z,12.60
2022-11-09T04:07:49.315Z,12.60
2022-11-09T04:10:17.965Z,12.60
2022-11-09T04:12:46.690Z,12.70
2022-11-09T04:15:15.409Z,12.60
2022-11-09T04:17:44.715Z,12.60
2022-11-09T04:20:14.203Z,12.50
2022-11-09T04:22:42.225Z,12.60
2022-11-09T04:25:10.432Z,12.50
2022-11-09T04:27:38.483Z,12.50
2022-11-09T04:30:07.576Z,12.50
2022-11-09T04:32:35.616Z,12.50
2022-11-09T04:35:04.184Z,12.50
2022-11-09T04:37:33.604Z,12.50
2022-11-09T04:40:01.682Z,12.50
2022-11-09T04:42:29.703Z,12.50
2022-11-09T04:44:57.728Z,12.50
2022-11-09T04:47:25.804Z,12.50
2022-11-09T04:49:53.858Z,12.50
2022-11-09T04:52:21.966Z,12.50
2022-11-09T04:54:51.346Z,12.50
2022-11-09T04:57:19.440Z,12.40
2022-11-09T04:59:47.483Z,12.40
2022-11-09T05:02:15.661Z,12.40
2022-11-09T05:04:44.196Z,12.40
2022-11-09T05:07:12.166Z,12.40
2022-11-09T05:09:40.342Z,12.40
2022-11-09T05:12:09.991Z,12.30
2022-11-09T05:14:38.866Z,12.30
2022-11-09T05:17:08.748Z,12.30
2022-11-09T05:19:37.038Z,12.30
2022-11-09T05:22:19.015Z,12.40
2022-11-09T05:24:47.068Z,12.30
2022-11-09T05:27:16.512Z,12.30
2022-11-09T05:29:44.669Z,12.30
2022-11-09T05:32:12.705Z,12.30
2022-11-09T05:34:40.753Z,12.30
2022-11-09T05:37:08.858Z,12.30
2022-11-09T05:39:36.922Z,12.30
2022-11-09T05:42:05.108Z,12.30
2022-11-09T05:44:34.574Z,12.30
2022-11-09T05:47:02.661Z,12.30
2022-11-09T05:49:30.814Z,12.20
2022-11-09T05:51:58.930Z,12.20
2022-11-09T05:54:26.973Z,12.20
2022-11-09T05:56:55.107Z,12.20
2022-11-09T05:59:23.168Z,12.20
2022-11-09T06:01:52.601Z,12.10
2022-11-09T06:04:20.788Z,12.10
2022-11-09T06:06:48.941Z,12.10
2022-11-09T06:09:17.104Z,12.10
2022-11-09T06:11:45.421Z,12.00
2022-11-09T06:14:13.755Z,12.00
2022-11-09T06:16:41.797Z,12.00
2022-11-09T06:19:11.444Z,12.00
2022-11-09T06:21:39.468Z,11.90
2022-11-09T06:24:08.274Z,12.00
2022-11-09T06:26:36.361Z,11.90
2022-11-09T06:29:04.832Z,11.90
2022-11-09T06:31:32.983Z,11.90
2022-11-09T06:34:01.198Z,11.90
2022-11-09T06:36:30.585Z,11.90
2022-11-09T06:38:58.650Z,11.90
2022-11-09T06:41:26.720Z,11.90
2022-11-09T06:43:54.785Z,11.90
2022-11-09T06:46:22.841Z,12.00
2022-11-09T06:48:54.498Z,12.00
2022-11-09T06:51:22.833Z,12.00
2022-11-09T06:53:52.308Z,11.90
2022-11-09T06:56:20.526Z,12.00
2022-11-09T06:58:49.122Z,12.00
2022-11-09T07:01:19.147Z,12.00
2022-11-09T07:03:47.258Z,12.00
2022-11-09T07:06:15.466Z,12.00
2022-11-09T07:08:43.496Z,12.00
2022-11-09T07:11:16.182Z,12.00
2022-11-09T07:13:44.317Z,12.00
2022-11-09T07:16:12.951Z,11.90
2022-11-09T07:18:41.164Z,11.90
2022-11-09T07:21:14.023Z,11.90
2022-11-09T07:23:43.414Z,11.90
2022-11-09T07:26:12.847Z,11.90
2022-11-09T07:28:41.329Z,12.00
2022-11-09T07:31:10.224Z,12.00
2022-11-09T07:33:38.658Z,12.00
2022-11-09T07:36:07.839Z,12.00
2022-11-09T07:38:35.932Z,12.00
2022-11-09T07:41:04.163Z,12.10
2022-11-09T07:43:33.623Z,12.10
2022-11-09T07:46:04.753Z,12.20
2022-11-09T07:48:32.891Z,12.20
2022-11-09T07:51:02.521Z,12.20
2022-11-09T07:53:30.637Z,12.10
2022-11-09T07:55:59.160Z,12.20
2022-11-09T07:58:27.421Z,12.20
2022-11-09T08:00:58.107Z,12.30
2022-11-09T08:03:26.967Z,12.30
2022-11-09T08:05:57.308Z,12.30
2022-11-09T08:08:25.456Z,12.30
2022-11-09T08:10:53.645Z,12.40
2022-11-09T08:13:22.045Z,12.50
2022-11-09T08:15:50.421Z,12.50
2022-11-09T08:18:22.855Z,12.50
2022-11-09T08:20:51.242Z,12.60
2022-11-09T08:23:21.845Z,12.70
2022-11-09T08:25:50.876Z,12.90
2022-11-09T08:28:19.316Z,13.00
2022-11-09T08:30:55.882Z,13.20
2022-11-09T08:33:25.800Z,13.00
2022-11-09T08:35:53.961Z,13.00
2022-11-09T08:38:22.586Z,13.10
2022-11-09T08:40:50.878Z,13.10
2022-11-09T08:43:20.003Z,13.20
2022-11-09T08:45:49.141Z,13.20
2022-11-09T08:48:17.356Z,13.20
2022-11-09T08:50:46.987Z,13.30
2022-11-09T08:53:15.080Z,13.40
2022-11-09T08:55:48.368Z,13.40
2022-11-09T08:58:18.052Z,13.50
2022-11-09T09:00:46.681Z,13.50
2022-11-09T09:03:14.779Z,13.60
2022-11-09T09:05:42.977Z,13.70
2022-11-09T09:08:15.330Z,13.60
2022-11-09T09:10:43.481Z,13.70
2022-11-09T09:13:11.587Z,13.70
2022-11-09T09:15:39.716Z,13.80
2022-11-09T09:18:08.107Z,13.70
2022-11-09T09:20:36.251Z,13.60
2022-11-09T09:23:04.545Z,13.60
2022-11-09T09:25:34.067Z,13.80
2022-11-09T09:28:02.205Z,14.00
2022-11-09T09:30:30.339Z,13.90
2022-11-09T09:33:01.633Z,14.00
2022-11-09T09:35:30.107Z,13.90
2022-11-09T09:37:58.582Z,14.00
2022-11-09T09:40:32.748Z,14.10
2022-11-09T09:43:02.196Z,14.10
2022-11-09T09:45:34.449Z,14.20
2022-11-09T09:48:12.684Z,14.20
2022-11-09T09:50:49.920Z,14.30
2022-11-09T09:53:25.105Z,14.30
2022-11-09T09:55:57.111Z,14.40
2022-11-09T09:58:28.883Z,14.30
2022-11-09T10:01:00.457Z,14.40
2022-11-09T10:03:28.597Z,14.60
2022-11-09T10:06:02.959Z,14.70
2022-11-09T10:08:48.225Z,14.70
2022-11-09T10:11:27.139Z,14.60
2022-11-09T10:14:27.842Z,14.60
2022-11-09T10:17:05.507Z,14.80
2022-11-09T10:19:46.628Z,14.70
2022-11-09T10:22:22.416Z,14.90
2022-11-09T10:25:20.871Z,14.90
2022-11-09T10:27:52.590Z,14.90
2022-11-09T10:30:24.280Z,14.70
2022-11-09T10:32:56.569Z,14.60
2022-11-09T10:35:30.415Z,14.70
2022-11-09T10:37:58.499Z,14.70
2022-11-09T10:40:31.042Z,14.80
2022-11-09T10:43:01.843Z,14.80
2022-11-09T10:45:33.499Z,14.70
2022-11-09T10:48:02.923Z,14.70
2022-11-09T10:50:34.985Z,14.70
2022-11-09T10:53:11.824Z,14.80
2022-11-09T10:55:40.031Z,14.90
2022-11-09T10:58:23.092Z,15.20
2022-11-09T11:01:05.234Z,15.00
2022-11-09T11:03:36.667Z,15.00
2022-11-09T11:06:06.735Z,14.90
2022-11-09T11:08:41.122Z,14.80
2022-11-09T11:11:33.636Z,14.80
2022-11-09T11:14:15.834Z,14.80
2022-11-09T11:16:48.380Z,14.70
2022-11-09T11:19:35.211Z,14.70
2022-11-09T11:22:22.779Z,14.70
2022-11-09T11:24:59.383Z,14.80
2022-11-09T11:27:34.127Z,14.80
2022-11-09T11:30:07.570Z,14.80
2022-11-09T11:32:36.992Z,15.00
2022-11-09T11:35:06.535Z,15.00
2022-11-09T11:37:50.650Z,14.90
2022-11-09T11:40:28.186Z,15.00
2022-11-09T11:43:23.778Z,14.90
2022-11-09T11:46:02.405Z,14.90
2022-11-09T11:48:54.410Z,14.80
2022-11-09T11:51:32.305Z,14.70
2022-11-09T11:54:10.483Z,14.70
2022-11-09T11:56:44.399Z,14.60
2022-11-09T11:59:38.875Z,14.60
2022-11-09T12:02:28.424Z,14.60
2022-11-09T12:05:32.969Z,14.70
2022-11-09T12:08:09.207Z,14.70
2022-11-09T12:10:49.511Z,14.80
2022-11-09T12:13:38.820Z,14.90
2022-11-09T12:16:13.029Z,14.90
2022-11-09T12:18:53.525Z,14.90
2022-11-09T12:21:28.713Z,14.80
2022-11-09T12:24:14.361Z,15.00
2022-11-09T12:27:25.634Z,14.90
2022-11-09T12:29:57.826Z,14.90
2022-11-09T12:32:32.626Z,14.60
2022-11-09T12:35:16.487Z,14.80
2022-11-09T12:37:51.618Z,14.90
2022-11-09T12:40:24.911Z,15.10
2022-11-09T12:43:00.538Z,15.20
2022-11-09T12:45:33.323Z,15.00
2022-11-09T12:48:07.350Z,14.90
2022-11-09T12:50:35.620Z,14.80
2022-11-09T12:53:04.785Z,14.80
2022-11-09T12:55:44.448Z,14.80
2022-11-09T12:58:23.549Z,14.80
2022-11-09T13:00:54.801Z,15.20
2022-11-09T13:03:25.843Z,15.40
2022-11-09T13:06:12.567Z,15.20
2022-11-09T13:08:42.260Z,15.10
2022-11-09T13:11:19.982Z,15.10
2022-11-09T13:13:48.085Z,15.30
2022-11-09T13:16:36.346Z,15.30
2022-11-09T13:19:04.627Z,15.30
2022-11-09T13:21:38.600Z,15.30
2022-11-09T13:24:54.895Z,15.30
2022-11-09T13:27:40.515Z,15.20
2022-11-09T13:30:40.747Z,15.10
2022-11-09T13:33:20.969Z,15.00
2022-11-09T13:36:14.614Z,15.00
2022-11-09T13:38:43.069Z,14.90
2022-11-09T13:41:43.786Z,15.00
2022-11-09T13:44:34.470Z,15.00
2022-11-09T13:47:06.428Z,15.00
2022-11-09T13:49:44.844Z,15.00
2022-11-09T13:52:51.514Z,15.00
2022-11-09T13:55:37.132Z,15.00
2022-11-09T13:58:14.152Z,15.00
2022-11-09T14:00:48.263Z,15.00
2022-11-09T14:03:22.573Z,15.00
2022-11-09T14:05:53.702Z,14.90
2022-11-09T14:08:24.831Z,14.90
2022-11-09T14:11:34.063Z,14.80
2022-11-09T14:14:21.205Z,14.70
2022-11-09T14:17:00.441Z,14.70
2022-11-09T14:19:36.049Z,14.70
2022-11-09T14:22:04.016Z,14.70
2022-11-09T14:24:33.625Z,14.60
2022-11-09T14:27:03.681Z,14.60
2022-11-09T14:29:33.173Z,14.50
2022-11-09T14:32:04.106Z,14.50
2022-11-09T14:34:32.000Z,14.50
2022-11-09T14:37:04.731Z,14.50
2022-11-09T14:39:35.362Z,14.50
2022-11-09T14:42:03.324Z,14.40
2022-11-09T14:44:35.775Z,14.40
2022-11-09T14:47:06.875Z,14.40
2022-11-09T14:49:34.908Z,14.40
2022-11-09T14:52:03.758Z,14.40
2022-11-09T14:54:32.017Z,14.40
2022-11-09T14:57:02.101Z,14.40
2022-11-09T14:59:32.950Z,14.40
2022-11-09T15:02:05.758Z,14.30
2022-11-09T15:04:52.020Z,14.40
2022-11-09T15:07:22.650Z,14.40
2022-11-09T15:09:54.032Z,14.40
2022-11-09T15:12:22.971Z,14.40
2022-11-09T15:14:53.430Z,14.40
2022-11-09T15:17:26.648Z,14.40
2022-11-09T15:19:56.893Z,14.30
2022-11-09T15:22:49.200Z,14.20
2022-11-09T15:25:24.094Z,14.20
2022-11-09T15:28:01.784Z,14.10
2022-11-09T15:30:35.974Z,14.00
2022-11-09T15:33:24.337Z,14.00
2022-11-09T15:35:55.341Z,14.00
2022-11-09T15:38:35.402Z,13.90
2022-11-09T15:41:04.884Z,13.80
2022-11-09T15:43:33.068Z,13.80
2022-11-09T15:46:02.218Z,13.80
2022-11-09T15:48:32.396Z,13.80
2022-11-09T15:51:01.033Z,13.70
2022-11-09T15:53:29.238Z,13.70
2022-11-09T15:55:57.470Z,13.70
2022-11-09T15:58:25.690Z,13.70
2022-11-09T16:00:54.118Z,13.70
2022-11-09T16:03:22.273Z,13.60
2022-11-09T16:05:51.738Z,13.70
2022-11-09T16:08:20.102Z,13.70
2022-11-09T16:10:48.375Z,13.60
2022-11-09T16:13:16.393Z,13.50
2022-11-09T16:15:44.526Z,13.50
2022-11-09T16:18:12.582Z,13.40
2022-11-09T16:20:41.174Z,13.30
2022-11-09T16:23:10.630Z,13.30
2022-11-09T16:25:38.741Z,13.20
2022-11-09T16:28:07.118Z,13.20
2022-11-09T16:30:35.338Z,13.10
2022-11-09T16:33:03.480Z,13.00
2022-11-09T16:35:31.629Z,13.00
2022-11-09T16:38:00.305Z,12.90
2022-11-09T16:40:31.745Z,13.00
2022-11-09T16:43:01.803Z,13.00
2022-11-09T16:45:33.436Z,12.90
2022-11-09T16:48:05.076Z,12.90
2022-11-09T16:50:33.158Z,13.00
2022-11-09T16:53:01.270Z,13.10
2022-11-09T16:55:30.679Z,13.10
2022-11-09T16:57:58.806Z,13.00
2022-11-09T17:00:42.518Z,13.00
2022-11-09T17:03:15.831Z,13.00
2022-11-09T17:05:44.358Z,12.90
2022-11-09T17:08:13.043Z,12.90
2022-11-09T17:10:47.063Z,12.90
2022-11-09T17:13:15.484Z,12.80
2022-11-09T17:15:44.952Z,12.90
2022-11-09T17:18:13.289Z,12.90
2022-11-09T17:20:44.648Z,12.90
2022-11-09T17:23:13.114Z,13.00
2022-11-09T17:25:41.889Z,13.00
2022-11-09T17:28:11.418Z,13.00
2022-11-09T17:30:42.140Z,13.00
2022-11-09T17:33:10.254Z,13.00
2022-11-09T17:35:38.354Z,12.90
2022-11-09T17:38:06.578Z,12.90
2022-11-09T17:40:34.750Z,12.80
2022-11-09T17:43:02.895Z,12.80
2022-11-09T17:45:32.814Z,12.80
2022-11-09T17:48:01.797Z,12.80
2022-11-09T17:50:29.913Z,12.70
2022-11-09T17:52:58.068Z,12.70
2022-11-09T17:55:26.155Z,12.70
2022-11-09T17:57:54.320Z,12.70
2022-11-09T18:00:23.445Z,12.70
2022-11-09T18:02:55.574Z,12.70
2022-11-09T18:05:23.758Z,12.70
2022-11-09T18:07:51.670Z,12.70
2022-11-09T18:10:19.875Z,12.80
2022-11-09T18:12:48.116Z,12.80
2022-11-09T18:15:16.450Z,12.80
2022-11-09T18:17:44.819Z,12.80
2022-11-09T18:20:14.746Z,12.80
2022-11-09T18:22:42.891Z,12.70
2022-11-09T18:25:11.836Z,12.70
2022-11-09T18:27:39.955Z,12.70
2022-11-09T18:30:09.440Z,12.60
2022-11-09T18:32:37.651Z,12.60
2022-11-09T18:35:06.786Z,12.60
2022-11-09T18:37:37.239Z,12.60
2022-11-09T18:40:06.095Z,12.50
2022-11-09T18:42:34.561Z,12.60
2022-11-09T18:45:02.680Z,12.50
2022-11-09T18:47:30.836Z,12.50
2022-11-09T18:49:58.958Z,12.50
2022-11-09T18:52:27.060Z,12.50
2022-11-09T18:54:57.049Z,12.50
2022-11-09T18:57:25.210Z,12.50
2022-11-09T18:59:53.342Z,12.50
2022-11-09T19:02:21.623Z,12.40
2022-11-09T19:04:49.880Z,12.30
2022-11-09T19:07:18.289Z,12.30
2022-11-09T19:09:46.346Z,12.20
2022-11-09T19:12:16.044Z,12.10
2022-11-09T19:14:44.738Z,12.20
2022-11-09T19:17:14.643Z,12.10
2022-11-09T19:19:43.321Z,12.10
2022-11-09T19:22:16.909Z,12.10
2022-11-09T19:24:46.345Z,12.20
2022-11-09T19:27:15.813Z,12.10
2022-11-09T19:29:43.949Z,12.10
2022-11-09T19:32:12.083Z,12.10
2022-11-09T19:34:42.585Z,12.10
2022-11-09T19:37:10.987Z,12.10
2022-11-09T19:39:43.030Z,12.10
2022-11-09T19:42:11.774Z,12.00
2022-11-09T19:44:41.234Z,12.00
2022-11-09T19:47:09.447Z,12.00
2022-11-09T19:49:37.694Z,11.90
2022-11-09T19:52:06.208Z,11.90
2022-11-09T19:54:34.279Z,11.80
2022-11-09T19:57:02.406Z,11.80
2022-11-09T19:59:30.511Z,11.80
2022-11-09T20:02:00.068Z,11.70
2022-11-09T20:04:28.325Z,11.70
2022-11-09T20:06:56.575Z,11.70
2022-11-09T20:09:24.662Z,11.70
2022-11-09T20:12:11.690Z,11.70
2022-11-09T20:14:39.746Z,11.70
2022-11-09T20:17:09.229Z,11.70
2022-11-09T20:19:37.353Z,11.70
2022-11-09T20:22:05.870Z,11.70
2022-11-09T20:24:33.977Z,11.60
2022-11-09T20:27:02.043Z,11.60
2022-11-09T20:29:30.073Z,11.60
2022-11-09T20:31:58.216Z,11.60
2022-11-09T20:34:29.625Z,11.60
2022-11-09T20:36:57.750Z,11.60
2022-11-09T20:39:25.859Z,11.50
2022-11-09T20:41:53.980Z,11.50
2022-11-09T20:44:22.006Z,11.50
2022-11-09T20:46:50.079Z,11.50
2022-11-09T20:49:18.221Z,11.50
2022-11-09T20:51:47.587Z,11.40
2022-11-09T20:54:15.619Z,11.40
2022-11-09T20:56:44.308Z,11.50
2022-11-09T20:59:12.496Z,11.50
2022-11-09T21:01:40.805Z,11.40
2022-11-09T21:04:08.862Z,11.40
2022-11-09T21:06:37.017Z,11.50
2022-11-09T21:09:06.581Z,11.40
2022-11-09T21:11:57.298Z,11.40
2022-11-09T21:14:25.564Z,11.30
2022-11-09T21:16:53.667Z,11.30
2022-11-09T21:19:21.758Z,11.40
2022-11-09T21:21:49.805Z,11.30
2022-11-09T21:24:36.658Z,11.30
2022-11-09T21:27:21.921Z,11.30
2022-11-09T21:29:52.721Z,11.30
2022-11-09T21:32:21.945Z,11.30
2022-11-09T21:34:50.315Z,11.30
2022-11-09T21:37:18.607Z,11.30
2022-11-09T21:39:48.097Z,11.30
2022-11-09T21:42:16.269Z,11.30
2022-11-09T21:44:44.350Z,11.30
2022-11-09T21:47:12.435Z,11.30
2022-11-09T21:49:40.660Z,11.30
2022-11-09T21:52:08.655Z,11.30
2022-11-09T21:54:36.763Z,11.30
2022-11-09T21:57:06.392Z,11.20
2022-11-09T21:59:34.448Z,11.20
2022-11-09T22:02:02.499Z,11.10
2022-11-09T22:04:30.545Z,11.10
2022-11-09T22:06:58.688Z,11.10
2022-11-09T22:09:29.806Z,11.10
2022-11-09T22:12:27.466Z,11.00
2022-11-09T22:15:12.868Z,11.00
2022-11-09T22:17:41.026Z,10.90
2022-11-09T22:20:27.695Z,10.90
2022-11-09T22:22:55.861Z,10.90
2022-11-09T22:25:23.952Z,11.00
2022-11-09T22:27:53.381Z,10.90
2022-11-09T22:30:21.558Z,11.00
2022-11-09T22:32:49.561Z,10.90
2022-11-09T22:35:17.786Z,11.00
2022-11-09T22:37:45.863Z,11.00
2022-11-09T22:40:14.117Z,10.90
2022-11-09T22:42:42.182Z,10.90
2022-11-09T22:45:11.990Z,10.90
2022-11-09T22:47:40.063Z,10.90
2022-11-09T22:50:08.642Z,10.90
2022-11-09T22:52:36.741Z,11.00
2022-11-09T22:55:05.090Z,11.00
2022-11-09T22:57:33.405Z,10.90
2022-11-09T23:00:01.473Z,10.90
2022-11-09T23:02:31.269Z,10.90
2022-11-09T23:04:59.379Z,10.90
2022-11-09T23:07:27.264Z,10.90
2022-11-09T23:09:55.284Z,10.90
2022-11-09T23:12:23.340Z,10.90
2022-11-09T23:15:06.798Z,10.90
2022-11-09T23:17:54.561Z,10.80
2022-11-09T23:20:23.049Z,10.80
2022-11-09T23:22:51.090Z,10.80
2022-11-09T23:25:36.676Z,10.80
2022-11-09T23:28:05.355Z,10.80
2022-11-09T23:30:33.414Z,10.80
2022-11-09T23:33:03.594Z,10.80
2022-11-09T23:35:31.627Z,10.70
2022-11-09T23:38:00.356Z,10.70
2022-11-09T23:40:28.945Z,10.60
2022-11-09T23:43:01.096Z,10.60
2022-11-09T23:45:29.473Z,10.50
2022-11-09T23:47:58.136Z,10.50
2022-11-09T23:50:27.997Z,10.40
2022-11-09T23:52:57.226Z,10.40
2022-11-09T23:55:25.672Z,10.40
2022-11-09T23:57:53.704Z,10.30
